createdAt,value
2022-08-12T00:00:37.060Z,24.10
2022-08-12T00:04:17.007Z,24.10
2022-08-12T00:10:06.619Z,24.20
2022-08-12T00:19:47.075Z,24.40
2022-08-12T00:26:05.701Z,24.00
2022-08-12T00:35:18.800Z,23.90
2022-08-12T00:47:38.641Z,23.80
2022-08-12T00:51:21.753Z,23.80
2022-08-12T00:53:49.336Z,23.80
2022-08-12T01:00:21.741Z,23.80
2022-08-12T01:03:10.821Z,23.70
2022-08-12T01:09:43.731Z,23.60
2022-08-12T01:13:18.503Z,23.60
2022-08-12T01:15:49.213Z,23.70
2022-08-12T01:18:40.150Z,23.70
2022-08-12T01:31:18.827Z,23.80
2022-08-12T01:38:02.808Z,23.90
2022-08-12T01:41:10.312Z,23.90
2022-08-12T01:43:38.337Z,23.80
2022-08-12T01:46:50.579Z,23.80
2022-08-12T01:49:45.227Z,23.70
2022-08-12T01:52:22.284Z,23.70
2022-08-12T01:54:52.044Z,23.60
2022-08-12T02:04:19.666Z,23.60
2022-08-12T02:08:05.273Z,23.60
2022-08-12T02:14:32.179Z,23.70
2022-08-12T02:17:15.018Z,23.70
2022-08-12T02:22:39.995Z,23.60
2022-08-12T02:25:30.197Z,23.60
2022-08-12T02:31:31.309Z,23.70
2022-08-12T02:34:05.586Z,23.60
2022-08-12T02:42:25.292Z,23.70
2022-08-12T02:48:20.054Z,23.80
2022-08-12T02:51:13.404Z,23.60
2022-08-12T02:53:45.435Z,23.60
2022-08-12T02:56:59.187Z,23.60
2022-08-12T03:02:40.448Z,23.60
2022-08-12T03:05:44.254Z,23.60
2022-08-12T03:21:57.893Z,23.50
2022-08-12T03:27:24.199Z,23.50
2022-08-12T03:31:07.674Z,23.40
2022-08-12T03:40:30.512Z,23.20
2022-08-12T03:43:23.576Z,23.10
2022-08-12T03:47:04.475Z,23.20
2022-08-12T03:59:55.015Z,23.30
2022-08-12T04:02:41.669Z,23.20
2022-08-12T04:05:56.120Z,23.20
2022-08-12T04:08:26.385Z,23.20
2022-08-12T04:11:13.355Z,23.00
2022-08-12T04:13:41.753Z,22.90
2022-08-12T04:16:13.709Z,23.00
2022-08-12T04:22:22.477Z,23.10
2022-08-12T04:25:29.291Z,23.00
2022-08-12T04:27:57.063Z,23.00
2022-08-12T04:35:13.086Z,23.00
2022-08-12T04:37:58.330Z,23.00
2022-08-12T04:47:03.165Z,22.80
2022-08-12T04:50:37.359Z,22.90
2022-08-12T04:53:09.397Z,22.90
2022-08-12T04:58:43.025Z,22.90
2022-08-12T05:02:14.493Z,23.00
2022-08-12T05:08:02.110Z,22.90
2022-08-12T05:10:55.261Z,22.90
2022-08-12T05:14:16.032Z,22.90
2022-08-12T05:22:39.359Z,23.00
2022-08-12T05:25:34.945Z,23.10
2022-08-12T05:32:20.931Z,23.20
2022-08-12T05:38:36.135Z,23.20
2022-08-12T05:41:06.896Z,23.30
2022-08-12T05:52:57.011Z,23.60
2022-08-12T05:55:27.069Z,23.70
2022-08-12T05:57:58.310Z,23.80
2022-08-12T06:00:26.242Z,24.00
2022-08-12T06:03:21.604Z,24.10
2022-08-12T06:08:55.294Z,24.30
2022-08-12T06:11:27.300Z,24.40
2022-08-12T06:13:58.771Z,24.60
2022-08-12T06:24:21.552Z,24.90
2022-08-12T06:27:16.993Z,24.90
2022-08-12T06:33:21.045Z,24.90
2022-08-12T06:36:44.425Z,24.90
2022-08-12T06:39:20.768Z,25.00
2022-08-12T06:42:53.340Z,24.90
2022-08-12T06:45:25.222Z,25.10
2022-08-12T06:48:16.600Z,25.00
2022-08-12T07:03:40.498Z,25.20
2022-08-12T07:09:58.120Z,25.30
2022-08-12T07:36:02.091Z,26.00
2022-08-12T08:07:01.209Z,26.60
2022-08-12T08:16:48.844Z,26.80
2022-08-12T08:27:01.137Z,26.80
2022-08-12T08:29:53.487Z,26.60
2022-08-12T08:32:24.811Z,26.60
2022-08-12T08:34:55.319Z,26.60
2022-08-12T08:37:24.079Z,26.60
2022-08-12T08:39:54.233Z,26.70
2022-08-12T08:42:41.053Z,26.80
2022-08-12T08:51:26.713Z,26.80
2022-08-12T08:57:54.872Z,27.00
2022-08-12T09:14:10.875Z,27.50
2022-08-12T09:16:24.821Z,27.60
2022-08-12T09:20:08.437Z,27.70
2022-08-12T09:24:00.012Z,27.90
2022-08-12T09:27:08.321Z,27.90
2022-08-12T09:37:52.909Z,27.90
2022-08-12T09:41:01.280Z,28.10
2022-08-12T09:50:00.713Z,28.40
2022-08-12T09:52:32.045Z,28.60
2022-08-12T09:59:01.433Z,28.70
2022-08-12T10:01:35.481Z,28.80
2022-08-12T10:07:25.117Z,28.70
2022-08-12T10:19:17.254Z,29.20
2022-08-12T10:21:38.760Z,29.50
2022-08-12T10:24:24.290Z,29.80
2022-08-12T10:27:16.127Z,29.80
2022-08-12T10:33:31.629Z,29.90
2022-08-12T10:37:10.686Z,29.90
2022-08-12T10:40:00.985Z,30.20
2022-08-12T10:46:13.168Z,30.20
2022-08-12T10:49:05.649Z,30.00
2022-08-12T10:52:33.795Z,30.00
2022-08-12T11:00:29.518Z,30.00
2022-08-12T11:13:53.368Z,30.50
2022-08-12T11:20:30.714Z,30.70
2022-08-12T11:23:25.250Z,30.80
2022-08-12T11:25:58.038Z,30.90
2022-08-12T11:31:26.342Z,31.00
2022-08-12T11:34:51.309Z,31.10
2022-08-12T11:37:25.815Z,31.20
2022-08-12T11:40:02.098Z,31.40
2022-08-12T11:42:32.519Z,31.60
2022-08-12T11:44:59.786Z,31.90
2022-08-12T11:47:41.772Z,31.90
2022-08-12T11:50:11.750Z,32.00
2022-08-12T11:52:55.898Z,32.10
2022-08-12T11:55:34.792Z,32.40
2022-08-12T11:59:35.984Z,32.00
2022-08-12T12:03:54.778Z,31.50
2022-08-12T12:06:25.179Z,31.40
2022-08-12T12:09:03.606Z,31.50
2022-08-12T12:11:48.953Z,31.50
2022-08-12T12:14:19.833Z,31.60
2022-08-12T12:17:09.217Z,31.40
2022-08-12T12:19:45.366Z,31.10
2022-08-12T12:22:15.842Z,31.50
2022-08-12T12:24:51.340Z,31.90
2022-08-12T12:28:04.168Z,32.10
2022-08-12T12:30:18.249Z,32.20
2022-08-12T12:33:00.115Z,32.40
2022-08-12T12:36:19.857Z,32.40
2022-08-12T12:38:20.742Z,32.50
2022-08-12T12:41:16.994Z,32.20
2022-08-12T12:44:04.248Z,32.30
2022-08-12T12:50:06.690Z,32.30
2022-08-12T12:52:42.948Z,32.80
2022-08-12T12:55:16.664Z,33.00
2022-08-12T12:58:25.327Z,33.00
2022-08-12T13:01:04.516Z,32.30
2022-08-12T13:04:02.267Z,32.30
2022-08-12T13:06:58.809Z,32.50
2022-08-12T13:09:40.155Z,32.80
2022-08-12T13:12:23.269Z,33.20
2022-08-12T13:14:53.202Z,33.20
2022-08-12T13:17:23.567Z,33.00
2022-08-12T13:19:55.435Z,32.90
2022-08-12T13:22:23.855Z,32.90
2022-08-12T13:24:56.388Z,33.20
2022-08-12T13:27:35.599Z,33.40
2022-08-12T13:30:12.537Z,33.60
2022-08-12T13:32:42.711Z,33.70
2022-08-12T13:35:19.301Z,33.70
2022-08-12T13:38:02.751Z,33.80
2022-08-12T13:40:37.523Z,34.10
2022-08-12T13:43:06.949Z,34.10
2022-08-12T13:45:35.646Z,33.70
2022-08-12T13:48:07.721Z,33.50
2022-08-12T13:50:38.451Z,33.40
2022-08-12T13:53:24.075Z,33.00
2022-08-12T13:55:59.361Z,32.60
2022-08-12T13:58:28.427Z,32.20
2022-08-12T14:00:58.252Z,31.80
2022-08-12T14:03:28.601Z,31.60
2022-08-12T14:06:15.382Z,31.50
2022-08-12T14:08:43.735Z,31.50
2022-08-12T14:11:12.435Z,31.50
2022-08-12T14:14:03.855Z,31.40
2022-08-12T14:16:37.866Z,31.10
2022-08-12T14:19:23.348Z,31.10
2022-08-12T14:21:59.757Z,31.10
2022-08-12T14:24:40.700Z,31.10
2022-08-12T14:27:10.902Z,30.90
2022-08-12T14:30:04.658Z,30.80
2022-08-12T14:32:34.880Z,30.70
2022-08-12T14:35:04.037Z,30.50
2022-08-12T14:37:56.406Z,30.40
2022-08-12T14:40:27.477Z,30.30
2022-08-12T14:42:57.028Z,30.20
2022-08-12T14:45:44.448Z,30.10
2022-08-12T14:48:13.731Z,30.00
2022-08-12T15:12:09.847Z,29.50
2022-08-12T15:18:10.810Z,29.20
2022-08-12T15:22:36.795Z,29.10
2022-08-12T15:24:54.051Z,29.00
2022-08-12T15:28:54.058Z,28.90
2022-08-12T16:12:58.308Z,26.20
2022-08-12T16:15:29.601Z,26.20
2022-08-12T16:18:18.578Z,26.20
2022-08-12T16:20:47.612Z,26.00
2022-08-12T16:23:36.386Z,25.60
2022-08-12T16:26:15.145Z,25.40
2022-08-12T16:28:48.083Z,25.20
2022-08-12T16:31:23.185Z,25.00
2022-08-12T16:34:00.012Z,24.90
2022-08-12T16:36:31.014Z,24.90
2022-08-12T16:39:01.420Z,24.90
2022-08-12T16:41:39.456Z,24.80
2022-08-12T16:44:10.598Z,24.70
2022-08-12T16:46:38.103Z,24.70
2022-08-12T16:49:08.902Z,24.30
2022-08-12T16:51:45.987Z,24.10
2022-08-12T16:54:16.458Z,24.10
2022-08-12T16:56:50.964Z,24.30
2022-08-12T16:59:52.950Z,24.20
2022-08-12T17:02:30.058Z,24.10
2022-08-12T17:04:59.891Z,24.00
2022-08-12T17:07:36.901Z,24.00
2022-08-12T17:10:12.950Z,23.90
2022-08-12T17:12:40.807Z,23.80
2022-08-12T17:15:50.413Z,23.80
2022-08-12T17:18:39.308Z,23.80
2022-08-12T17:20:47.543Z,23.70
2022-08-12T17:23:24.347Z,23.50
2022-08-12T17:25:53.647Z,23.50
2022-08-12T17:28:43.173Z,23.50
2022-08-12T17:32:31.452Z,23.40
2022-08-12T17:35:37.263Z,23.40
2022-08-12T17:42:32.580Z,23.10
2022-08-12T17:46:13.241Z,23.20
2022-08-12T17:48:55.579Z,23.20
2022-08-12T17:51:26.040Z,23.10
2022-08-12T17:54:10.827Z,22.90
2022-08-12T17:56:43.225Z,22.80
2022-08-12T17:59:12.551Z,23.00
2022-08-12T18:01:45.327Z,23.00
2022-08-12T18:04:21.817Z,22.90
2022-08-12T18:06:56.748Z,22.70
2022-08-12T18:16:05.493Z,23.00
2022-08-12T18:18:58.623Z,23.10
2022-08-12T18:22:02.743Z,23.10
2022-08-12T18:26:15.237Z,23.00
2022-08-12T18:33:05.744Z,22.90
2022-08-12T18:35:46.422Z,22.70
2022-08-12T18:39:17.710Z,22.50
2022-08-12T18:41:49.926Z,22.60
2022-08-12T18:51:22.094Z,22.50
